CheckWX is a tool to help pilots better visualize weather data.  It is not intended as a substitute for an official pre-flight weather briefing.

08:35:20 UTC

KFNT TAF
Bishop International Airport
Flint, Michigan, USA
KFNT 190538Z 1906/2006 18008KT P6SM BKN100 FM191400 20014G24KT P6SM SCT050 BKN100 FM191800 20018G28KT P6SM -SHRA VCTS SCT028 BKN045CB BKN080 FM192100 20018G28KT P6SM SCT045 BKN100 TEMPO 1923/2001 3SM -TSRA BKN035CB OVC050 FM200100 22012KT P6SM SCT045 BKN070

May-19@
06:00 UTC

May-19 @ 06:00 UTC

May-19@
14:00 UTC

May-19 @ 14:00 UTC

KFNT 190538Z 1906/2006 18008KT P6SM BKN100
Wind
  • 180° at 8 KTS
Cloud Levels
  • Broken at 10,000' AGL

May-19@
14:00 UTC

May-19 @ 14:00 UTC

May-19@
18:00 UTC

May-19 @ 18:00 UTC

FM191400 20014G24KT P6SM SCT050 BKN100

From

From Standard forecast or significant change

Wind
  • 200° at 14 KTS
  • {Gusting to 24 KTS
Cloud Levels
  • Scattered at 5,000' AGL
  • Broken at 10,000' AGL

May-19@
18:00 UTC

May-19 @ 18:00 UTC

May-19@
21:00 UTC

May-19 @ 21:00 UTC

FM191800 20018G28KT P6SM -SHRA VCTS SCT028 BKN045CB BKN080

From

From Standard forecast or significant change

Wind
  • 200° at 18 KTS
  • {Gusting to 28 KTS
Conditions
Light Rain, Area Thunderstorm
Cloud Levels
  • Scattered at 2,800' AGL
  • Broken at 4,500' AGL
  • Broken at 8,000' AGL

May-19@
21:00 UTC

May-19 @ 21:00 UTC

May-20@
01:00 UTC

May-20 @ 01:00 UTC

FM192100 20018G28KT P6SM SCT045 BKN100

From

From Standard forecast or significant change

Wind
  • 200° at 18 KTS
  • {Gusting to 28 KTS
Cloud Levels
  • Scattered at 4,500' AGL
  • Broken at 10,000' AGL

May-19@
23:00 UTC

May-19 @ 23:00 UTC

May-20@
01:00 UTC

May-20 @ 01:00 UTC

TEMPO 1923/2001 3SM -TSRA BKN035CB OVC050

Temporary

Temporary Changes expected for less than half the time period

Conditions
Light Thunderstorm, Light Rain
Cloud Levels
  • Broken at 3,500' AGL
  • Overcast at 5,000' AGL

May-20@
01:00 UTC

May-20 @ 01:00 UTC

May-20@
06:00 UTC

May-20 @ 06:00 UTC

FM200100 22012KT P6SM SCT045 BKN070

From

From Standard forecast or significant change

Wind
  • 220° at 12 KTS
Cloud Levels
  • Scattered at 4,500' AGL
  • Broken at 7,000' AGL